Time;durP1;ratioP1;P1;durP2;ratioP2;P2;SDS_P1;SDS_P2;PMS_P1;PMS_P2;Temp;Humidity;BMP_temperature;BMP_pressure;BME280_temperature;BME280_humidity;BME280_pressure;Samples;Min_cycle;Max_cycle;Signal;HPM_P1;HPM_P2
2022/04/20 00:02:31;;;;;;;6.38;4.80;;;;;;;4.16;63.42;97746.78;10072798;29;20049;-82
2022/04/20 00:07:52;;;;;;;7.75;5.22;;;;;;;4.07;63.21;97752.09;10059848;29;20057;-82
2022/04/20 00:13:17;;;;;;;7.10;5.25;;;;;;;4.02;63.13;97750.97;10072124;29;20028;-83
2022/04/20 00:18:39;;;;;;;7.32;5.40;;;;;;;3.95;62.92;97751.69;10072458;29;20053;-81
2022/04/20 00:24:01;;;;;;;8.27;5.93;;;;;;;3.88;63.54;97755.94;10072011;29;20041;-78
2022/04/20 00:29:23;;;;;;;7.57;6.10;;;;;;;3.80;63.83;97744.13;10071434;29;20079;-84
2022/04/20 00:41:01;;;;;;;8.45;6.28;;;;;;;3.72;63.61;97752.41;10670859;23;20075;-79
2022/04/20 00:46:24;;;;;;;8.65;6.28;;;;;;;3.70;64.30;97749.44;10109674;29;20053;-86
2022/04/20 00:51:53;;;;;;;7.70;6.45;;;;;;;3.72;63.75;97743.38;10109626;29;20035;-83
2022/04/20 00:57:16;;;;;;;10.15;6.68;;;;;;;3.64;63.66;97735.06;10096365;29;20057;-86
2022/04/20 01:02:38;;;;;;;9.02;7.00;;;;;;;3.60;63.73;97742.97;10093156;29;20047;-84
2022/04/20 01:08:00;;;;;;;11.00;7.60;;;;;;;3.59;64.00;97746.28;10081109;29;20029;-81
2022/04/20 01:13:45;;;;;;;10.00;6.73;;;;;;;3.53;64.08;97740.94;10127460;29;20049;-84
2022/04/20 01:19:16;;;;;;;12.32;7.70;;;;;;;3.48;64.53;97741.84;10122034;29;20033;-86
2022/04/20 01:24:51;;;;;;;10.98;7.55;;;;;;;3.41;64.69;97734.28;10122530;29;20037;-85
2022/04/20 01:30:33;;;;;;;10.20;7.97;;;;;;;3.37;64.80;97736.63;10113798;29;20077;-84
2022/04/20 01:36:06;;;;;;;10.48;7.32;;;;;;;3.34;64.24;97732.22;10111095;29;20053;-82
2022/04/20 01:41:28;;;;;;;9.60;7.25;;;;;;;3.30;64.65;97718.78;10092340;29;20049;-81
2022/04/20 01:46:50;;;;;;;10.18;7.25;;;;;;;3.27;64.84;97716.38;10107996;29;20056;-82
2022/04/20 01:52:25;;;;;;;10.10;7.63;;;;;;;3.19;64.76;97718.38;10100254;29;20025;-84
2022/04/20 01:58:06;;;;;;;10.30;7.68;;;;;;;3.14;65.01;97715.22;10125412;29;20093;-81
2022/04/20 02:03:44;;;;;;;12.25;8.13;;;;;;;3.11;65.33;97710.81;10112018;29;20056;-83
2022/04/20 02:09:12;;;;;;;11.25;7.70;;;;;;;3.10;64.84;97714.09;10100707;29;20035;-85
2022/04/20 02:14:47;;;;;;;11.43;7.60;;;;;;;2.99;65.60;97706.88;10105662;29;20049;-80
2022/04/20 02:20:29;;;;;;;11.75;6.82;;;;;;;3.02;65.79;97710.56;10133351;29;20109;-84
2022/04/20 02:25:52;;;;;;;9.93;7.03;;;;;;;3.01;65.37;97709.09;10114677;29;20051;-85
2022/04/20 02:31:16;;;;;;;8.82;6.55;;;;;;;2.99;65.50;97717.91;10124269;29;20108;-84
2022/04/20 02:36:39;;;;;;;10.18;7.45;;;;;;;2.89;65.40;97708.66;10127307;29;20040;-85
2022/04/20 02:42:01;;;;;;;9.85;6.80;;;;;;;2.82;65.06;97707.34;10086876;29;20042;-78
2022/04/20 02:47:23;;;;;;;9.80;6.80;;;;;;;2.77;65.29;97696.47;10272834;23;20053;-80
2022/04/20 02:52:45;;;;;;;10.15;7.70;;;;;;;2.80;65.43;97703.66;10093511;29;20080;-79
2022/04/20 02:58:07;;;;;;;13.20;7.40;;;;;;;2.81;65.96;97708.63;10104345;29;20072;-78
2022/04/20 03:03:36;;;;;;;10.63;7.38;;;;;;;2.76;65.60;97708.78;10110119;29;20041;-78
2022/04/20 03:09:11;;;;;;;11.57;7.68;;;;;;;2.80;65.77;97722.97;10095096;29;20020;-80
2022/04/20 03:14:35;;;;;;;12.20;7.67;;;;;;;2.81;65.98;97738.22;10064746;29;20127;-80
2022/04/20 03:19:57;;;;;;;12.60;8.23;;;;;;;2.78;65.79;97726.25;10088915;29;20125;-78
2022/04/20 03:25:18;;;;;;;9.63;6.70;;;;;;;2.80;65.68;97720.94;10089765;29;20078;-80
2022/04/20 03:30:57;;;;;;;9.70;7.45;;;;;;;2.82;65.73;97743.19;10099519;29;20025;-78
2022/04/20 03:36:18;;;;;;;9.35;7.10;;;;;;;2.80;66.16;97742.25;10101879;29;20049;-78
2022/04/20 03:41:41;;;;;;;11.60;7.60;;;;;;;2.77;65.88;97743.31;10087522;29;20108;-80
2022/04/20 03:47:03;;;;;;;11.75;7.22;;;;;;;2.80;65.94;97756.06;10074325;29;20067;-81
2022/04/20 03:52:25;;;;;;;12.30;7.80;;;;;;;2.90;65.81;97759.06;10087814;29;20032;-80
2022/04/20 03:57:45;;;;;;;9.90;7.50;;;;;;;2.87;65.98;97758.84;10087707;29;20053;-80
2022/04/20 04:03:07;;;;;;;12.30;8.13;;;;;;;2.88;66.01;97762.31;10075057;29;20091;-80
2022/04/20 04:08:30;;;;;;;8.85;7.13;;;;;;;2.91;66.15;97755.00;10089362;29;20030;-79
2022/04/20 04:13:52;;;;;;;10.13;7.55;;;;;;;3.05;66.42;97764.63;10088641;29;20032;-82
2022/04/20 04:19:13;;;;;;;11.38;7.75;;;;;;;3.16;66.15;97773.34;10089225;29;20041;-81
2022/04/20 04:24:34;;;;;;;18.23;8.70;;;;;;;3.26;65.36;97764.53;10089241;29;20041;-80
2022/04/20 04:30:01;;;;;;;12.02;8.50;;;;;;;3.36;65.38;97776.56;10124063;29;20120;-78
2022/04/20 04:35:28;;;;;;;12.32;7.32;;;;;;;3.48;65.29;97769.44;10088133;29;20101;-78
2022/04/20 04:40:50;;;;;;;11.55;8.38;;;;;;;3.62;65.19;97773.53;10089314;29;20077;-79
2022/04/20 04:52:24;;;;;;;13.25;8.88;;;;;;;4.17;65.50;97775.13;10202475;23;20033;-80
2022/04/20 04:57:56;;;;;;;11.45;7.93;;;;;;;4.52;64.92;97767.94;10085658;24;20054;-80
2022/04/20 05:03:21;;;;;;;12.10;9.00;;;;;;;5.00;64.74;97771.59;10038215;29;20043;-81
2022/04/20 05:08:44;;;;;;;12.15;8.63;;;;;;;5.58;64.05;97764.19;10025110;29;20094;-83
2022/04/20 05:14:06;;;;;;;11.40;8.45;;;;;;;6.41;63.77;97767.78;10008779;29;20045;-85
2022/04/20 05:19:31;;;;;;;13.63;8.40;;;;;;;7.58;63.89;97769.59;10034982;29;20030;-84
2022/04/20 05:24:59;;;;;;;9.45;6.82;;;;;;;12.31;62.85;97771.38;10485974;23;20058;-83
2022/04/20 05:30:20;;;;;;;9.57;7.13;;;;;;;20.12;51.67;97772.00;10083036;29;20048;-81
2022/04/20 05:35:42;;;;;;;7.75;6.03;;;;;;;25.08;43.46;97780.97;10180967;24;20536;-86
2022/04/20 05:46:45;;;;;;;6.70;4.78;;;;;;;30.99;32.77;97767.56;10023205;29;20287;-86
2022/04/20 05:52:09;;;;;;;8.13;4.82;;;;;;;32.40;28.49;97771.13;10032178;29;20041;-85
2022/04/20 05:57:47;;;;;;;10.20;6.43;;;;;;;32.29;26.32;97778.53;10058505;29;20413;-83
2022/04/20 06:03:36;;;;;;;9.63;5.78;;;;;;;34.44;24.13;97778.81;10027785;29;20521;-85
2022/04/20 06:09:11;;;;;;;8.75;5.10;;;;;;;36.21;19.42;97758.19;10051318;29;20053;-86
2022/04/20 06:14:41;;;;;;;13.38;6.32;;;;;;;37.35;17.82;97760.53;10019139;29;20437;-85
2022/04/20 06:20:09;;;;;;;8.18;5.40;;;;;;;38.78;15.63;97766.88;10019333;29;20482;-86
2022/04/20 06:25:46;;;;;;;15.15;6.40;;;;;;;39.46;12.67;97762.25;10012355;29;20090;-80
2022/04/20 06:31:20;;;;;;;6.32;5.72;;;;;;;40.18;11.90;97761.69;10000466;29;20114;-86
2022/04/20 06:37:05;;;;;;;6.40;4.50;;;;;;;41.24;11.05;97761.91;10002733;29;20070;-87
2022/04/20 06:42:59;;;;;;;5.57;3.83;;;;;;;42.12;9.33;97755.38;9991170;29;20502;-87
2022/04/20 06:48:39;;;;;;;4.53;3.88;;;;;;;42.63;8.52;97749.38;10012303;29;20050;-87
2022/04/20 07:00:02;;;;;;;;;;;;;;;43.11;6.45;97730.25;10001429;29;20074;-87
2022/04/20 07:05:55;;;;;;;5.05;4.30;;;;;;;43.72;6.50;97729.19;9995835;29;19925;-88
2022/04/20 07:11:20;;;;;;;5.55;4.50;;;;;;;44.70;6.17;97728.44;10006341;29;20103;-87
2022/04/20 07:16:44;;;;;;;5.10;4.10;;;;;;;45.18;5.64;97712.47;9999339;29;20053;-87
2022/04/20 07:22:13;;;;;;;7.32;3.95;;;;;;;45.14;5.25;97706.84;10017017;29;20048;-87
2022/04/20 07:27:51;;;;;;;6.57;3.90;;;;;;;46.28;4.87;97709.41;10017954;29;20046;-86
2022/04/20 07:33:42;;;;;;;5.65;3.85;;;;;;;46.58;4.85;97709.28;10037549;29;20069;-86
2022/04/20 07:39:14;;;;;;;3.83;3.47;;;;;;;47.46;4.36;97711.78;9999817;29;20046;-87
2022/04/20 07:44:56;;;;;;;4.82;3.30;;;;;;;47.47;4.03;97713.16;10007941;29;20053;-83
2022/04/20 07:50:38;;;;;;;3.42;3.13;;;;;;;47.68;3.95;97707.00;9994168;29;20103;-83
2022/04/20 07:56:19;;;;;;;3.90;3.08;;;;;;;41.73;5.14;97707.13;9991548;29;20054;-87
2022/04/20 08:02:41;;;;;;;4.97;2.90;;;;;;;39.08;6.05;97714.44;9998497;29;20107;-86
2022/04/20 08:08:16;;;;;;;4.65;3.75;;;;;;;33.61;7.57;97717.94;9999609;29;20049;-87
2022/04/20 08:19:44;;;;;;;6.30;4.15;;;;;;;26.11;12.53;97703.22;10021656;29;20042;-85
2022/04/20 08:25:05;;;;;;;;;;;;;;;23.79;14.70;97707.22;10006187;29;20053;-85
2022/04/20 08:30:27;;;;;;;7.03;4.57;;;;;;;22.46;15.54;97712.69;10035095;29;19932;-84
2022/04/20 08:35:50;;;;;;;8.00;4.70;;;;;;;20.86;15.88;97704.66;10016665;29;20060;-86
2022/04/20 08:41:12;;;;;;;5.07;4.57;;;;;;;19.07;17.94;97707.75;10020578;29;20056;-86
2022/04/20 08:46:35;;;;;;;5.90;5.30;;;;;;;18.03;18.32;97708.97;10059745;29;20045;-86
2022/04/20 08:57:36;;;;;;;7.78;5.63;;;;;;;16.39;21.46;97706.47;10050340;29;20405;-85
2022/04/20 09:03:00;;;;;;;12.35;6.25;;;;;;;15.87;22.40;97707.63;10035776;29;20519;-84
2022/04/20 09:08:25;;;;;;;6.50;5.80;;;;;;;15.53;22.73;97701.81;10010811;29;20050;-86
2022/04/20 09:13:47;;;;;;;9.13;6.53;;;;;;;15.50;24.00;97700.25;9999235;29;20042;-85
2022/04/20 09:19:07;;;;;;;10.38;6.45;;;;;;;15.40;24.95;97691.34;10037991;29;20503;-88
2022/04/20 09:24:28;;;;;;;11.57;6.57;;;;;;;14.97;25.79;97703.34;10016613;29;20102;-87
2022/04/20 09:29:57;;;;;;;7.70;6.68;;;;;;;14.38;26.64;97700.34;10016674;29;20401;-87
2022/04/20 09:35:19;;;;;;;9.25;6.68;;;;;;;14.38;26.19;97694.72;9999923;29;20064;-86
2022/04/20 09:40:41;;;;;;;10.40;6.70;;;;;;;14.68;26.40;97689.22;10009808;29;20074;-84
2022/04/20 09:48:50;;;;;;;8.27;6.93;;;;;;;14.59;26.67;97674.75;10044850;29;20768;-84
2022/04/20 09:51:46;;;;;;;8.30;6.22;;;;;;;14.44;26.84;97672.53;10070465;29;20053;-84
2022/04/20 09:57:12;;;;;;;7.97;6.18;;;;;;;14.45;26.87;97676.09;10033240;29;20053;-81
2022/04/20 10:02:36;;;;;;;9.38;6.32;;;;;;;14.45;27.32;97674.03;10012369;29;20041;-82
2022/04/20 10:07:59;;;;;;;9.57;6.20;;;;;;;14.60;27.11;97670.59;10000712;29;20053;-82
2022/04/20 10:13:22;;;;;;;8.13;7.00;;;;;;;14.81;27.09;97663.19;9993828;29;20046;-83
2022/04/20 10:18:44;;;;;;;8.60;6.88;;;;;;;14.79;27.73;97668.72;9993769;29;20054;-82
2022/04/20 10:24:07;;;;;;;8.75;6.82;;;;;;;14.89;26.84;97655.88;9993738;29;20061;-82
2022/04/20 10:35:32;;;;;;;11.20;6.97;;;;;;;15.24;27.50;97642.75;10088023;24;20144;-82
2022/04/20 10:41:18;;;;;;;9.00;6.32;;;;;;;15.22;27.93;97629.34;10024254;29;20401;-84
2022/04/20 10:46:57;;;;;;;6.65;5.95;;;;;;;15.30;27.19;97629.72;10004618;29;20106;-84
2022/04/20 10:52:25;;;;;;;7.22;6.03;;;;;;;15.38;27.40;97624.47;9997696;29;20049;-84
2022/04/20 10:57:48;;;;;;;7.40;6.03;;;;;;;15.40;27.24;97623.84;9986927;29;20061;-85
2022/04/20 11:03:11;;;;;;;9.63;6.47;;;;;;;15.27;27.39;97622.56;9999353;29;20042;-83
2022/04/20 11:08:32;;;;;;;7.78;6.18;;;;;;;14.84;27.32;97622.56;9986996;29;20097;-79
2022/04/20 11:20:07;;;;;;;5.95;4.82;;;;;;;14.44;27.71;97626.88;10341333;24;20061;-78
2022/04/20 11:25:30;;;;;;;5.88;5.10;;;;;;;14.45;27.48;97615.06;10075497;29;20052;-78
2022/04/20 11:30:50;;;;;;;9.85;5.50;;;;;;;14.40;27.69;97607.75;10100493;29;20052;-78
2022/04/20 11:36:24;;;;;;;5.97;5.13;;;;;;;14.71;27.88;97610.03;10132358;24;20152;-80
2022/04/20 11:41:46;;;;;;;7.50;5.43;;;;;;;15.25;27.41;97596.41;10050165;29;20045;-82
2022/04/20 11:47:11;;;;;;;5.60;4.82;;;;;;;15.83;26.75;97586.44;10035803;29;20132;-85
2022/04/20 11:52:32;;;;;;;5.28;4.45;;;;;;;16.73;26.42;97571.97;10022233;29;20445;-85
2022/04/20 11:58:30;;;;;;;6.85;4.22;;;;;;;17.58;24.93;97565.41;10044410;29;20553;-85
2022/04/20 12:03:51;;;;;;;4.15;3.42;;;;;;;17.08;24.77;97570.53;10021932;29;20078;-87
2022/04/20 12:09:12;;;;;;;6.05;3.60;;;;;;;16.45;24.91;97563.06;10034673;29;20061;-87
2022/04/20 12:14:34;;;;;;;4.53;3.70;;;;;;;16.55;24.59;97557.84;10047098;29;20060;-86
2022/04/20 12:19:55;;;;;;;5.07;4.57;;;;;;;16.71;24.63;97548.63;10034340;29;20493;-86
2022/04/20 12:25:19;;;;;;;6.07;4.53;;;;;;;17.00;24.36;97542.03;10046440;29;20425;-87
2022/04/20 12:30:44;;;;;;;8.20;3.42;;;;;;;17.15;23.79;97535.56;10034220;29;20074;-87
2022/04/20 12:36:11;;;;;;;4.03;3.42;;;;;;;17.20;23.36;97530.81;10059075;29;20092;-86
2022/04/20 12:41:47;;;;;;;5.07;3.42;;;;;;;17.09;23.37;97524.06;10035569;29;20052;-86
2022/04/20 12:47:10;;;;;;;4.93;3.53;;;;;;;16.67;23.38;97523.06;10046060;29;20049;-88
2022/04/20 12:52:32;;;;;;;6.57;4.10;;;;;;;16.13;23.90;97525.81;10032453;29;20056;-84
2022/04/20 13:03:40;;;;;;;9.00;4.43;;;;;;;15.11;24.33;97520.56;10035387;29;20058;-81
2022/04/20 13:09:13;;;;;;;6.35;4.72;;;;;;;14.75;24.55;97508.34;10061964;24;20519;-80
2022/04/20 13:14:35;;;;;;;5.15;3.88;;;;;;;14.68;24.28;97501.00;10036252;29;20049;-79
2022/04/20 13:19:56;;;;;;;7.97;4.07;;;;;;;14.54;24.76;97510.19;10068585;29;20467;-79
2022/04/20 13:31:10;;;;;;;6.85;4.10;;;;;;;14.19;25.22;97501.44;11092564;24;20053;-80
2022/04/20 13:36:43;;;;;;;6.13;4.37;;;;;;;13.97;25.89;97496.13;11593175;23;20051;-79
2022/04/20 13:42:20;;;;;;;8.35;4.43;;;;;;;14.14;25.91;97500.50;11077180;23;20364;-83
2022/04/20 13:47:41;;;;;;;6.60;4.35;;;;;;;14.20;26.19;97503.59;10815078;23;20057;-80
2022/04/20 14:43:32;;;;;;;8.98;6.43;;;;;;;13.69;33.31;97519.94;11234273;23;20057;31
2022/04/20 14:55:15;;;;;;;7.30;5.22;;;;;;;13.21;33.05;97515.31;10457147;23;20057;-83
2022/04/20 15:00:39;;;;;;;7.77;6.00;;;;;;;12.85;33.99;97517.56;10126914;29;20041;-83
2022/04/20 15:06:00;;;;;;;7.47;5.47;;;;;;;12.66;34.12;97518.66;10607415;24;20069;-82
2022/04/20 15:17:27;;;;;;;7.95;4.63;;;;;;;12.04;36.65;97536.81;10315501;23;20071;-82
2022/04/20 15:22:51;;;;;;;10.27;5.20;;;;;;;11.78;37.53;97526.88;10098386;29;20044;-84
2022/04/20 15:28:13;;;;;;;8.40;4.88;;;;;;;11.47;38.53;97525.03;10348387;23;20068;-85
2022/04/20 15:33:34;;;;;;;10.18;5.18;;;;;;;11.27;38.88;97542.66;10087077;29;20045;-85
2022/04/20 15:38:57;;;;;;;7.78;5.03;;;;;;;11.12;40.78;97544.56;10061057;29;20037;-82
2022/04/20 15:44:18;;;;;;;8.20;5.10;;;;;;;11.11;41.08;97537.53;10073760;29;20060;-85
2022/04/20 15:49:41;;;;;;;6.18;5.28;;;;;;;11.10;42.70;97541.66;10086173;29;20039;-84
2022/04/20 16:01:22;;;;;;;8.90;5.85;;;;;;;10.62;43.91;97544.19;10418080;23;20064;-82
2022/04/20 16:06:44;;;;;;;7.93;6.45;;;;;;;10.62;44.20;97538.59;10080164;29;20116;-82
2022/04/20 16:12:08;;;;;;;11.77;7.20;;;;;;;10.36;44.79;97543.94;10095904;29;20054;-83
2022/04/20 16:17:30;;;;;;;12.27;6.67;;;;;;;10.38;45.93;97543.34;10082095;29;20061;-80
2022/04/20 16:22:51;;;;;;;10.07;6.85;;;;;;;10.28;46.18;97541.34;10062971;29;20104;-81
2022/04/20 16:28:12;;;;;;;9.02;6.65;;;;;;;10.26;46.14;97532.84;10053132;29;20053;-78
2022/04/20 16:33:33;;;;;;;8.45;5.25;;;;;;;10.35;46.71;97531.31;10055589;29;20109;-78
2022/04/20 16:38:54;;;;;;;9.10;5.97;;;;;;;10.37;46.85;97530.72;10052254;29;20045;-79
2022/04/20 16:44:18;;;;;;;7.70;5.55;;;;;;;10.35;47.14;97533.38;10045974;29;20041;-78
2022/04/20 16:49:41;;;;;;;7.50;5.68;;;;;;;10.36;48.06;97529.25;10050184;29;20057;-76
2022/04/20 16:55:05;;;;;;;9.20;6.13;;;;;;;10.20;47.99;97529.63;10053137;29;20056;-77
2022/04/20 17:00:26;;;;;;;7.60;5.75;;;;;;;10.16;48.90;97528.66;10064951;29;20109;-79
2022/04/20 17:05:49;;;;;;;7.50;6.25;;;;;;;10.04;49.26;97523.00;10062853;29;20054;-78
2022/04/20 17:11:11;;;;;;;9.23;6.57;;;;;;;9.90;49.52;97520.00;10036498;29;20477;-78
2022/04/20 17:16:32;;;;;;;8.00;6.03;;;;;;;9.78;49.82;97519.19;10018731;29;20421;-78
2022/04/20 17:27:32;;;;;;;9.88;6.00;;;;;;;9.61;50.42;97522.94;10062040;29;20052;-79
2022/04/20 17:32:53;;;;;;;9.20;5.95;;;;;;;9.50;51.28;97518.00;10055326;29;20050;-80
2022/04/20 17:38:17;;;;;;;8.27;5.75;;;;;;;9.45;50.90;97522.56;10107038;29;20056;-83
2022/04/20 17:43:38;;;;;;;7.68;5.10;;;;;;;9.38;51.46;97517.91;10428222;24;20090;-82
2022/04/20 17:49:00;;;;;;;8.50;5.88;;;;;;;9.36;51.85;97523.38;10039437;29;20041;-81
2022/04/20 17:54:23;;;;;;;6.63;5.25;;;;;;;9.32;51.89;97525.84;10035803;29;20379;-80
2022/04/20 17:59:46;;;;;;;8.07;5.70;;;;;;;9.24;52.75;97516.22;10046975;29;20070;-80
2022/04/20 18:05:08;;;;;;;6.65;5.38;;;;;;;9.18;52.44;97524.88;10029186;29;20138;-80
2022/04/20 18:10:29;;;;;;;7.68;5.45;;;;;;;9.14;52.96;97519.03;10044163;29;20101;-81
2022/04/20 18:15:54;;;;;;;6.70;5.47;;;;;;;9.11;53.35;97525.78;10049429;29;20046;-82
2022/04/20 18:21:15;;;;;;;6.95;5.63;;;;;;;9.05;53.88;97522.56;10045146;29;20054;-82
2022/04/20 18:26:36;;;;;;;6.00;5.05;;;;;;;9.04;54.21;97519.06;10070711;29;20113;-82
2022/04/20 18:31:57;;;;;;;7.18;5.78;;;;;;;9.00;54.45;97518.06;10048986;29;20102;-81
2022/04/20 18:37:18;;;;;;;8.88;6.22;;;;;;;9.01;54.52;97509.09;10011209;29;20446;-81
2022/04/20 18:42:59;;;;;;;6.95;5.78;;;;;;;8.96;55.34;97512.91;10312247;24;20037;-81
2022/04/20 18:48:20;;;;;;;6.53;5.40;;;;;;;8.96;55.00;97520.53;10075294;29;20041;-81
2022/04/20 18:59:24;;;;;;;6.75;5.40;;;;;;;8.91;55.70;97521.59;10092328;29;20037;-83
2022/04/20 19:04:48;;;;;;;9.73;5.40;;;;;;;8.88;55.84;97524.25;10051030;29;20050;-79
2022/04/20 19:10:10;;;;;;;7.53;5.97;;;;;;;8.83;56.07;97525.25;10065087;29;20050;-82
2022/04/20 19:15:32;;;;;;;6.50;5.80;;;;;;;8.86;56.43;97518.50;10054020;29;20068;-79
2022/04/20 19:20:53;;;;;;;8.95;6.55;;;;;;;8.83;56.97;97518.97;10044141;29;20169;-77
2022/04/20 19:26:13;;;;;;;7.45;6.00;;;;;;;8.81;56.96;97508.41;10053359;29;20045;-77
2022/04/20 19:31:35;;;;;;;7.50;6.50;;;;;;;8.76;57.08;97503.16;10040600;29;20053;-77
2022/04/20 19:36:56;;;;;;;7.70;6.90;;;;;;;8.75;57.46;97504.47;10055646;29;20053;-78
2022/04/20 19:42:17;;;;;;;7.75;6.80;;;;;;;8.72;57.55;97498.03;10027270;29;20090;-78
2022/04/20 19:47:40;;;;;;;10.45;7.15;;;;;;;8.71;58.41;97504.94;10040936;29;20101;-78
2022/04/20 19:53:02;;;;;;;8.90;7.93;;;;;;;8.69;58.34;97502.00;10040598;29;20083;-78
2022/04/20 19:58:23;;;;;;;8.88;7.10;;;;;;;8.70;58.39;97500.69;10048475;29;20057;-79
2022/04/20 20:03:43;;;;;;;9.77;8.35;;;;;;;8.69;58.37;97504.06;10044047;29;20054;-79
2022/04/20 20:09:04;;;;;;;11.57;7.97;;;;;;;8.71;58.67;97499.38;10039398;29;20045;-81
2022/04/20 20:14:25;;;;;;;10.88;8.93;;;;;;;8.70;58.80;97491.59;10079472;29;20025;-83
2022/04/20 20:19:46;;;;;;;11.55;9.77;;;;;;;8.69;59.17;97490.88;10078604;29;20128;-84
2022/04/20 20:30:48;;;;;;;13.63;10.73;;;;;;;8.63;59.53;97489.72;10073613;29;20046;-82
2022/04/20 20:36:10;;;;;;;12.90;9.35;;;;;;;8.58;59.66;97481.06;10058838;29;20093;-84
2022/04/20 20:41:31;;;;;;;10.63;9.27;;;;;;;8.55;60.12;97492.66;10058428;29;20065;-81
2022/04/20 20:46:53;;;;;;;11.52;9.20;;;;;;;8.53;60.09;97484.88;10045282;29;20049;-80
2022/04/20 20:52:14;;;;;;;11.32;8.95;;;;;;;8.51;59.97;97476.41;10073166;29;20033;-82
2022/04/20 20:57:35;;;;;;;9.98;7.75;;;;;;;8.46;59.83;97466.28;10069145;29;20081;-83
2022/04/20 21:02:56;;;;;;;11.30;8.32;;;;;;;8.45;60.16;97473.19;10063349;29;20041;-84
2022/04/20 21:08:17;;;;;;;12.57;8.23;;;;;;;8.42;60.57;97468.06;10063167;29;20049;-83
2022/04/20 21:13:40;;;;;;;9.13;8.02;;;;;;;8.40;60.40;97465.16;10049730;29;20051;-82
2022/04/20 21:19:06;;;;;;;9.98;7.32;;;;;;;8.41;60.53;97461.06;10055163;29;20034;-83
2022/04/20 21:24:28;;;;;;;11.07;7.75;;;;;;;8.39;60.64;97463.66;10041064;29;20047;-82
2022/04/20 21:29:49;;;;;;;9.93;8.35;;;;;;;8.34;60.71;97457.06;10047806;29;20034;-82
2022/04/20 21:35:13;;;;;;;11.40;9.00;;;;;;;8.26;60.85;97445.34;10047728;29;20070;-82
2022/04/20 21:46:24;;;;;;;12.07;8.77;;;;;;;8.22;60.89;97451.38;10068439;29;20057;-83
2022/04/20 21:51:48;;;;;;;11.00;9.80;;;;;;;8.20;61.67;97448.47;10064420;29;20037;-82
2022/04/20 21:57:12;;;;;;;12.90;9.85;;;;;;;8.22;61.59;97454.16;10076931;29;20105;-82
2022/04/20 22:08:23;;;;;;;12.88;9.75;;;;;;;8.18;61.65;97451.06;10092894;29;20041;-84
2022/04/20 22:13:44;;;;;;;11.45;8.75;;;;;;;8.19;61.96;97458.09;10077579;29;20054;-83
2022/04/20 22:19:06;;;;;;;11.43;8.70;;;;;;;8.15;62.23;97443.91;10063252;29;20057;-83
2022/04/20 22:24:27;;;;;;;10.48;9.18;;;;;;;8.15;62.11;97441.13;10063952;29;20045;-83
2022/04/20 22:29:48;;;;;;;12.27;9.80;;;;;;;8.15;62.62;97430.00;10082027;29;20496;-83
2022/04/20 22:35:11;;;;;;;13.63;11.25;;;;;;;8.17;62.80;97432.94;10069348;29;20085;-83
2022/04/20 22:40:32;;;;;;;15.20;11.43;;;;;;;8.15;62.86;97429.28;10093193;29;20109;-81
2022/04/20 22:45:54;;;;;;;14.75;11.32;;;;;;;8.15;62.93;97420.94;10067999;29;20045;-82
2022/04/20 22:51:19;;;;;;;12.75;10.02;;;;;;;8.15;62.75;97413.31;10068612;29;20105;-82
2022/04/20 22:56:44;;;;;;;11.82;10.15;;;;;;;8.17;62.99;97419.03;10069033;29;20053;-82
2022/04/20 23:02:05;;;;;;;14.67;10.00;;;;;;;8.16;62.96;97417.56;10067608;29;20052;-83
2022/04/20 23:07:26;;;;;;;13.23;10.27;;;;;;;8.15;63.06;97412.59;10079601;29;20052;-84
2022/04/20 23:12:47;;;;;;;11.07;9.63;;;;;;;8.17;63.07;97413.47;10066248;29;20052;-83
2022/04/20 23:18:08;;;;;;;12.48;10.38;;;;;;;8.15;62.87;97412.59;10091652;29;20036;-83
2022/04/20 23:23:32;;;;;;;11.98;10.13;;;;;;;8.14;63.20;97417.44;10065871;29;20049;-83
2022/04/20 23:28:53;;;;;;;13.10;10.27;;;;;;;8.16;63.30;97428.69;10066189;29;20069;-82
2022/04/20 23:34:16;;;;;;;10.90;9.70;;;;;;;8.15;63.10;97423.72;10065801;29;20310;-82
2022/04/20 23:39:38;;;;;;;11.20;9.60;;;;;;;8.16;63.36;97420.34;10064164;29;20080;-82
2022/04/20 23:45:00;;;;;;;13.10;9.63;;;;;;;8.16;63.40;97416.84;10077384;29;20097;-83
2022/04/20 23:50:21;;;;;;;13.27;9.90;;;;;;;8.14;63.43;97423.00;10063804;29;20110;-82
2022/04/20 23:55:42;;;;;;;12.38;10.80;;;;;;;8.10;63.51;97421.94;10063480;29;20128;-82
